sensor_id;sensor_type;location;lat;lon;timestamp;temperature;humidity
44729;DHT22;30457;53.590;9.922;2022-07-23T14:25:28;25.00;40.50
44729;DHT22;30457;53.590;9.922;2022-07-23T14:29:55;25.10;41.00
44729;DHT22;30457;53.590;9.922;2022-07-23T14:34:21;25.20;40.50
44729;DHT22;30457;53.590;9.922;2022-07-23T14:38:46;25.30;40.20
44729;DHT22;30457;53.590;9.922;2022-07-23T14:43:12;25.30;40.10
44729;DHT22;30457;53.590;9.922;2022-07-23T14:47:37;25.40;39.50
44729;DHT22;30457;53.590;9.922;2022-07-23T14:52:04;25.40;39.50
44729;DHT22;30457;53.590;9.922;2022-07-23T14:56:30;25.30;39.40
44729;DHT22;30457;53.590;9.922;2022-07-23T15:00:55;25.30;39.30
44729;DHT22;30457;53.590;9.922;2022-07-23T15:05:21;25.20;39.30
44729;DHT22;30457;53.590;9.922;2022-07-23T15:09:47;25.20;39.30
44729;DHT22;30457;53.590;9.922;2022-07-23T15:14:12;25.20;39.20
44729;DHT22;30457;53.590;9.922;2022-07-23T15:18:38;25.10;39.00
44729;DHT22;30457;53.590;9.922;2022-07-23T15:23:04;25.10;39.10
44729;DHT22;30457;53.590;9.922;2022-07-23T15:27:30;25.00;39.20
44729;DHT22;30457;53.590;9.922;2022-07-23T15:31:56;24.90;39.60
44729;DHT22;30457;53.590;9.922;2022-07-23T15:36:22;24.90;39.50
44729;DHT22;30457;53.590;9.922;2022-07-23T15:40:47;24.90;39.50
44729;DHT22;30457;53.590;9.922;2022-07-23T15:45:13;24.90;39.30
44729;DHT22;30457;53.590;9.922;2022-07-23T15:49:39;24.90;39.70
44729;DHT22;30457;53.590;9.922;2022-07-23T15:54:05;25.00;39.80
44729;DHT22;30457;53.590;9.922;2022-07-23T15:58:31;25.00;39.30
44729;DHT22;30457;53.590;9.922;2022-07-23T16:02:56;25.00;39.40
44729;DHT22;30457;53.590;9.922;2022-07-23T16:07:22;25.00;39.60
44729;DHT22;30457;53.590;9.922;2022-07-23T16:11:47;25.00;39.20
44729;DHT22;30457;53.590;9.922;2022-07-23T16:16:13;25.00;39.60
44729;DHT22;30457;53.590;9.922;2022-07-23T16:20:39;25.00;39.10
44729;DHT22;30457;53.590;9.922;2022-07-23T16:25:06;25.00;39.20
44729;DHT22;30457;53.590;9.922;2022-07-23T16:29:32;25.00;38.90
44729;DHT22;30457;53.590;9.922;2022-07-23T16:33:58;25.10;39.00
44729;DHT22;30457;53.590;9.922;2022-07-23T16:38:23;25.20;38.80
44729;DHT22;30457;53.590;9.922;2022-07-23T16:42:51;25.20;39.00
44729;DHT22;30457;53.590;9.922;2022-07-23T16:47:16;25.30;38.70
44729;DHT22;30457;53.590;9.922;2022-07-23T16:51:45;25.30;38.50
44729;DHT22;30457;53.590;9.922;2022-07-23T16:56:10;25.30;38.60
44729;DHT22;30457;53.590;9.922;2022-07-23T17:00:36;25.30;38.40
44729;DHT22;30457;53.590;9.922;2022-07-23T17:05:02;25.30;38.20
44729;DHT22;30457;53.590;9.922;2022-07-23T17:09:27;25.30;38.50
44729;DHT22;30457;53.590;9.922;2022-07-23T17:13:53;25.40;39.10
44729;DHT22;30457;53.590;9.922;2022-07-23T17:18:19;25.60;39.20
44729;DHT22;30457;53.590;9.922;2022-07-23T17:22:44;25.90;39.10
44729;DHT22;30457;53.590;9.922;2022-07-23T17:27:10;26.20;38.50
44729;DHT22;30457;53.590;9.922;2022-07-23T17:31:35;26.30;37.80
44729;DHT22;30457;53.590;9.922;2022-07-23T17:36:01;26.20;37.60
44729;DHT22;30457;53.590;9.922;2022-07-23T17:40:27;26.10;37.50
44729;DHT22;30457;53.590;9.922;2022-07-23T17:44:53;25.90;37.40
44729;DHT22;30457;53.590;9.922;2022-07-23T17:49:18;25.70;37.50
44729;DHT22;30457;53.590;9.922;2022-07-23T17:53:44;25.50;37.60
44729;DHT22;30457;53.590;9.922;2022-07-23T17:58:09;25.40;37.70
44729;DHT22;30457;53.590;9.922;2022-07-23T18:02:35;25.20;37.50
44729;DHT22;30457;53.590;9.922;2022-07-23T18:07:01;25.00;37.80
44729;DHT22;30457;53.590;9.922;2022-07-23T18:11:26;24.80;37.90
44729;DHT22;30457;53.590;9.922;2022-07-23T18:15:52;24.70;38.20
44729;DHT22;30457;53.590;9.922;2022-07-23T18:20:18;24.50;38.60
44729;DHT22;30457;53.590;9.922;2022-07-23T18:24:43;24.40;38.50
44729;DHT22;30457;53.590;9.922;2022-07-23T18:29:09;24.30;38.80
44729;DHT22;30457;53.590;9.922;2022-07-23T18:33:34;24.20;38.70
44729;DHT22;30457;53.590;9.922;2022-07-23T18:38:01;24.10;38.70
44729;DHT22;30457;53.590;9.922;2022-07-23T18:42:26;24.10;38.90
44729;DHT22;30457;53.590;9.922;2022-07-23T18:46:52;23.90;38.80
44729;DHT22;30457;53.590;9.922;2022-07-23T18:51:18;23.80;38.80
44729;DHT22;30457;53.590;9.922;2022-07-23T18:55:43;23.70;38.90
44729;DHT22;30457;53.590;9.922;2022-07-23T19:00:10;23.60;39.20
44729;DHT22;30457;53.590;9.922;2022-07-23T19:04:36;23.50;39.40
44729;DHT22;30457;53.590;9.922;2022-07-23T19:09:01;23.40;39.60
44729;DHT22;30457;53.590;9.922;2022-07-23T19:13:27;23.30;39.70
44729;DHT22;30457;53.590;9.922;2022-07-23T19:17:52;23.20;39.80
44729;DHT22;30457;53.590;9.922;2022-07-23T19:22:18;23.10;39.80
44729;DHT22;30457;53.590;9.922;2022-07-23T19:26:44;23.00;40.00
44729;DHT22;30457;53.590;9.922;2022-07-23T19:31:09;22.90;40.20
44729;DHT22;30457;53.590;9.922;2022-07-23T19:35:35;22.80;40.40
44729;DHT22;30457;53.590;9.922;2022-07-23T19:40:01;22.80;40.70
44729;DHT22;30457;53.590;9.922;2022-07-23T19:44:31;22.70;40.80
44729;DHT22;30457;53.590;9.922;2022-07-23T19:48:57;22.60;41.00
44729;DHT22;30457;53.590;9.922;2022-07-23T19:53:22;22.50;40.90
44729;DHT22;30457;53.590;9.922;2022-07-23T19:57:48;22.50;41.10
44729;DHT22;30457;53.590;9.922;2022-07-23T20:02:13;22.40;41.20
44729;DHT22;30457;53.590;9.922;2022-07-23T20:06:40;22.40;41.40
44729;DHT22;30457;53.590;9.922;2022-07-23T20:11:06;22.30;41.40
44729;DHT22;30457;53.590;9.922;2022-07-23T20:15:32;22.20;41.40
44729;DHT22;30457;53.590;9.922;2022-07-23T20:19:58;22.20;41.60
44729;DHT22;30457;53.590;9.922;2022-07-23T20:24:24;22.10;41.70
44729;DHT22;30457;53.590;9.922;2022-07-23T20:28:49;22.00;41.80
44729;DHT22;30457;53.590;9.922;2022-07-23T20:33:20;21.90;41.90
44729;DHT22;30457;53.590;9.922;2022-07-23T20:37:46;21.90;42.10
44729;DHT22;30457;53.590;9.922;2022-07-23T20:42:12;21.80;42.20
44729;DHT22;30457;53.590;9.922;2022-07-23T20:46:39;21.70;42.80
44729;DHT22;30457;53.590;9.922;2022-07-23T20:51:05;21.60;43.10
44729;DHT22;30457;53.590;9.922;2022-07-23T20:55:31;21.50;43.00
44729;DHT22;30457;53.590;9.922;2022-07-23T20:59:57;21.40;43.00
44729;DHT22;30457;53.590;9.922;2022-07-23T21:04:22;21.40;43.20
44729;DHT22;30457;53.590;9.922;2022-07-23T21:08:48;21.30;43.20
44729;DHT22;30457;53.590;9.922;2022-07-23T21:13:14;21.20;43.70
44729;DHT22;30457;53.590;9.922;2022-07-23T21:17:39;21.10;43.50
44729;DHT22;30457;53.590;9.922;2022-07-23T21:22:05;21.00;43.70
44729;DHT22;30457;53.590;9.922;2022-07-23T21:26:32;21.00;43.70
44729;DHT22;30457;53.590;9.922;2022-07-23T21:30:58;20.90;44.10
44729;DHT22;30457;53.590;9.922;2022-07-23T21:35:23;20.80;44.10
44729;DHT22;30457;53.590;9.922;2022-07-23T21:39:49;20.70;44.20
44729;DHT22;30457;53.590;9.922;2022-07-23T21:44:15;20.70;44.20
44729;DHT22;30457;53.590;9.922;2022-07-23T21:48:40;20.60;44.30
44729;DHT22;30457;53.590;9.922;2022-07-23T21:53:07;20.50;44.60
44729;DHT22;30457;53.590;9.922;2022-07-23T21:57:34;20.50;44.70
44729;DHT22;30457;53.590;9.922;2022-07-23T22:01:59;20.40;44.80
44729;DHT22;30457;53.590;9.922;2022-07-23T22:06:25;20.30;44.90
44729;DHT22;30457;53.590;9.922;2022-07-23T22:10:51;20.30;44.90
44729;DHT22;30457;53.590;9.922;2022-07-23T22:15:17;20.20;45.10
44729;DHT22;30457;53.590;9.922;2022-07-23T22:19:43;20.10;45.20
44729;DHT22;30457;53.590;9.922;2022-07-23T22:24:08;20.10;45.40
44729;DHT22;30457;53.590;9.922;2022-07-23T22:28:34;20.00;45.50
44729;DHT22;30457;53.590;9.922;2022-07-23T22:33:01;19.90;45.50
44729;DHT22;30457;53.590;9.922;2022-07-23T22:37:27;19.90;45.70
44729;DHT22;30457;53.590;9.922;2022-07-23T22:41:53;19.80;45.70
44729;DHT22;30457;53.590;9.922;2022-07-23T22:46:19;19.70;45.90
44729;DHT22;30457;53.590;9.922;2022-07-23T22:50:45;19.70;45.90
44729;DHT22;30457;53.590;9.922;2022-07-23T22:55:11;19.60;46.10
44729;DHT22;30457;53.590;9.922;2022-07-23T22:59:36;19.60;46.30
44729;DHT22;30457;53.590;9.922;2022-07-23T23:04:02;19.50;46.40
44729;DHT22;30457;53.590;9.922;2022-07-23T23:08:28;19.40;46.40
44729;DHT22;30457;53.590;9.922;2022-07-23T23:12:53;19.40;46.50
44729;DHT22;30457;53.590;9.922;2022-07-23T23:17:19;19.30;46.60
44729;DHT22;30457;53.590;9.922;2022-07-23T23:21:45;19.20;46.70
44729;DHT22;30457;53.590;9.922;2022-07-23T23:26:10;19.20;46.80
44729;DHT22;30457;53.590;9.922;2022-07-23T23:30:36;19.20;46.80
44729;DHT22;30457;53.590;9.922;2022-07-23T23:35:02;19.10;47.00
44729;DHT22;30457;53.590;9.922;2022-07-23T23:39:27;19.10;47.10
44729;DHT22;30457;53.590;9.922;2022-07-23T23:43:53;19.00;47.10
44729;DHT22;30457;53.590;9.922;2022-07-23T23:48:19;19.00;47.30
44729;DHT22;30457;53.590;9.922;2022-07-23T23:52:44;18.90;47.40
44729;DHT22;30457;53.590;9.922;2022-07-23T23:57:10;18.90;47.50
